TAF FDMS 111000Z 1112/1118 12008KT 9999 SCT030=